Hauptseite
METAR-TAF:

METAR-TAF

Flughäfen :

Daressalam, Tansania

Flughafen Dar es Salaam

Breite: 06-52S, Länge: 039-12E, Höhe: 55 m

Beobachtung

Neuester Wetterbericht von vor 1 Stunde und 10 Minuten, um 13:00 UTC
Wind 12 kt aus Ost
Temperatur 32°C
Luftfeuchtigkeit 59%
Luftdruck 1012 hPa
Sichtweite 10 km oder mehr
Leicht bewölkt in der Höhe von 2100 ft
Aufgelockert bewölkt in der Höhe von 2500 ft

METAR: HTDA 201300Z 09012KT 9999 FEW021 SCT025 32/23 Q1012 NOSIG

Zeit: 17:10 (14:10 UTC)

Prognose

Neuester Wetterbericht von vor 3 Stunden und 10 Minuten, um 11:00 UTC
Gültige Prognose vom 20 um 12 UTC bis 21 um 18 UTC
Wind 15 kt aus Ost
Sichtweite 10 km oder mehr
Aufgelockert bewölkt in der Höhe von 2600 ft
Übergehend zu
vom 20 um 21 UTC bis 20 um 24 UTC
Wind kt aus Nord
Leicht bewölkt in der Höhe von 1300 ft

TAF: HTDA 201100Z 2012/2118 09015KT 9999 SCT026 BECMG 2021/2024 00000KT FEW013

Wetterbeobachtungen und Prognosen von mehr als 4000 Flughäfen (METAR und TAF Bericht).

Die verfügbaren Stationen werden durch gelbe und rote Markierungen auf der Karte dargestellt.

Führen Sie die Maus auf sie, um den Namen der Station zu sehen.

Darauf klicken, um die Beobachtung von Wetterbeobachtungen und Prognosen zu sehen.

Um die Karte zu ändern : klicken Sie auf den grünen Tasten mit einem schwarzen Kreuz Zum Vergrößern, auf den grünen Button mit einem Gedankenstrich zu verkleinern, oder auf die grünen Pfeile für benachbarte Karten.


METAR-TAF: